createdAt,value
2022-09-09T00:01:31.669Z,22.50
2022-09-09T00:03:46.409Z,22.20
2022-09-09T00:06:01.621Z,22.20
2022-09-09T00:08:06.585Z,22.30
2022-09-09T00:10:22.959Z,22.20
2022-09-09T00:12:36.548Z,22.30
2022-09-09T00:14:49.126Z,22.50
2022-09-09T00:16:57.442Z,22.80
2022-09-09T00:19:06.339Z,23.10
2022-09-09T00:21:16.614Z,23.30
2022-09-09T00:23:27.515Z,23.50
2022-09-09T00:25:37.914Z,23.70
2022-09-09T00:27:48.011Z,23.70
2022-09-09T00:29:58.243Z,23.60
2022-09-09T00:32:11.272Z,22.60
2022-09-09T00:34:18.944Z,22.30
2022-09-09T00:36:26.356Z,22.20
2022-09-09T00:38:36.256Z,22.00
2022-09-09T00:40:48.187Z,22.10
2022-09-09T00:43:05.566Z,22.40
2022-09-09T00:45:29.521Z,22.80
2022-09-09T00:47:43.625Z,23.10
2022-09-09T00:50:01.290Z,23.30
2022-09-09T00:52:24.375Z,23.40
2022-09-09T00:54:36.108Z,23.10
2022-09-09T00:56:48.268Z,22.70
2022-09-09T00:59:02.626Z,22.10
2022-09-09T01:01:12.216Z,21.50
2022-09-09T01:03:35.051Z,21.00
2022-09-09T01:05:47.242Z,20.60
2022-09-09T01:07:55.155Z,20.20
2022-09-09T01:10:08.024Z,19.70
2022-09-09T01:12:16.542Z,19.50
2022-09-09T01:14:38.544Z,19.30
2022-09-09T01:16:45.169Z,19.40
2022-09-09T01:18:55.136Z,19.90
2022-09-09T01:21:03.877Z,20.50
2022-09-09T01:23:21.500Z,20.90
2022-09-09T01:26:19.176Z,21.50
2022-09-09T01:28:28.750Z,21.00
2022-09-09T01:30:43.008Z,20.40
2022-09-09T01:32:53.130Z,20.10
2022-09-09T01:34:57.207Z,20.10
2022-09-09T01:37:05.808Z,19.90
2022-09-09T01:39:10.394Z,19.70
2022-09-09T01:41:16.432Z,19.80
2022-09-09T01:43:33.785Z,20.00
2022-09-09T01:45:39.806Z,20.10
2022-09-09T01:47:45.058Z,19.90
2022-09-09T01:50:10.598Z,19.60
2022-09-09T01:52:14.886Z,19.30
2022-09-09T01:54:19.398Z,19.20
2022-09-09T01:56:37.805Z,19.30
2022-09-09T01:58:57.870Z,19.30
2022-09-09T02:01:08.692Z,19.40
2022-09-09T02:03:21.182Z,19.90
2022-09-09T02:05:38.457Z,20.50
2022-09-09T02:07:50.782Z,21.10
2022-09-09T02:10:14.297Z,21.60
2022-09-09T02:12:28.247Z,22.10
2022-09-09T02:14:40.017Z,22.30
2022-09-09T02:16:49.644Z,21.80
2022-09-09T02:18:59.419Z,21.20
2022-09-09T02:21:15.402Z,20.40
2022-09-09T02:23:21.452Z,19.80
2022-09-09T02:25:31.669Z,19.70
2022-09-09T02:27:48.955Z,19.60
2022-09-09T02:29:55.270Z,19.90
2022-09-09T02:32:16.052Z,20.60
2022-09-09T02:34:22.813Z,21.20
2022-09-09T02:36:30.225Z,21.60
2022-09-09T02:38:41.049Z,21.80
2022-09-09T02:40:50.890Z,21.60
2022-09-09T02:42:57.427Z,21.70
2022-09-09T02:45:01.585Z,21.90
2022-09-09T02:47:21.699Z,22.30
2022-09-09T02:49:34.582Z,22.60
2022-09-09T02:51:48.902Z,22.90
2022-09-09T02:54:00.271Z,22.70
2022-09-09T02:56:08.273Z,22.80
2022-09-09T02:58:18.911Z,23.00
2022-09-09T03:00:32.258Z,23.10
2022-09-09T03:02:39.651Z,22.90
2022-09-09T03:04:47.487Z,22.40
2022-09-09T03:06:51.820Z,22.10
2022-09-09T03:08:58.416Z,21.70
2022-09-09T03:11:04.603Z,21.50
2022-09-09T03:13:13.907Z,21.10
2022-09-09T03:15:20.421Z,20.80
2022-09-09T03:17:26.880Z,20.30
2022-09-09T03:19:33.212Z,20.10
2022-09-09T03:21:37.746Z,20.50
2022-09-09T03:23:41.883Z,20.90
2022-09-09T03:25:50.157Z,21.30
2022-09-09T03:27:59.004Z,21.00
2022-09-09T03:30:04.919Z,20.70
2022-09-09T03:32:11.831Z,20.50
2022-09-09T03:34:16.910Z,20.30
2022-09-09T03:36:21.183Z,20.00
2022-09-09T03:38:25.824Z,20.00
2022-09-09T03:40:30.264Z,19.90
2022-09-09T03:42:34.477Z,19.60
2022-09-09T03:44:39.128Z,19.30
2022-09-09T03:46:43.997Z,19.00
2022-09-09T03:48:49.542Z,18.80
2022-09-09T03:50:55.028Z,18.50
2022-09-09T03:52:59.992Z,18.30
2022-09-09T03:55:04.284Z,18.00
2022-09-09T03:57:08.845Z,17.90
2022-09-09T03:59:13.218Z,17.90
2022-09-09T04:01:19.325Z,18.00
2022-09-09T04:03:28.037Z,18.00
2022-09-09T04:05:35.566Z,18.20
2022-09-09T04:07:39.908Z,18.40
2022-09-09T04:09:44.383Z,18.80
2022-09-09T04:11:48.750Z,19.10
2022-09-09T04:13:53.037Z,19.30
2022-09-09T04:15:59.626Z,19.50
2022-09-09T04:18:03.916Z,19.70
2022-09-09T04:20:12.431Z,19.60
2022-09-09T04:22:18.380Z,19.50
2022-09-09T04:24:22.698Z,19.30
2022-09-09T04:26:27.726Z,19.20
2022-09-09T04:28:34.481Z,19.40
2022-09-09T04:30:40.910Z,19.40
2022-09-09T04:32:45.232Z,19.50
2022-09-09T04:34:49.528Z,19.50
2022-09-09T04:36:54.325Z,19.70
2022-09-09T04:39:00.379Z,20.20
2022-09-09T04:41:04.844Z,20.40
2022-09-09T04:43:14.309Z,20.30
2022-09-09T04:45:20.805Z,20.40
2022-09-09T04:47:25.050Z,20.40
2022-09-09T04:49:29.231Z,20.40
2022-09-09T04:51:33.631Z,20.80
2022-09-09T04:53:38.364Z,21.00
2022-09-09T04:55:44.145Z,21.00
2022-09-09T04:57:49.366Z,21.10
2022-09-09T04:59:53.976Z,21.20
2022-09-09T05:01:58.411Z,21.30
2022-09-09T05:04:16.314Z,21.60
2022-09-09T05:06:23.091Z,21.80
2022-09-09T05:08:31.890Z,21.90
2022-09-09T05:10:38.598Z,22.30
2022-09-09T05:12:44.743Z,22.60
2022-09-09T05:14:49.097Z,23.00
2022-09-09T05:16:53.206Z,23.10
2022-09-09T05:19:00.339Z,23.30
2022-09-09T05:21:13.297Z,23.40
2022-09-09T05:23:17.636Z,23.70
2022-09-09T05:25:23.215Z,24.20
2022-09-09T05:27:27.629Z,24.50
2022-09-09T05:29:34.523Z,24.80
2022-09-09T05:31:42.536Z,24.60
2022-09-09T05:33:51.541Z,24.40
2022-09-09T05:36:00.488Z,24.70
2022-09-09T05:38:06.031Z,24.80
2022-09-09T05:40:12.216Z,24.80
2022-09-09T05:42:17.776Z,25.10
2022-09-09T05:44:24.489Z,25.30
2022-09-09T05:46:30.566Z,25.50
2022-09-09T05:48:36.156Z,25.70
2022-09-09T05:50:40.443Z,25.60
2022-09-09T05:52:45.678Z,26.00
2022-09-09T05:54:50.357Z,26.00
2022-09-09T05:56:54.677Z,25.90
2022-09-09T05:59:01.199Z,25.60
2022-09-09T06:01:08.843Z,25.70
2022-09-09T06:03:15.035Z,25.90
2022-09-09T06:05:19.559Z,26.10
2022-09-09T06:07:24.179Z,26.30
2022-09-09T06:09:28.325Z,26.60
2022-09-09T06:11:35.249Z,26.70
2022-09-09T06:13:40.764Z,26.50
2022-09-09T06:15:52.254Z,26.40
2022-09-09T06:17:57.493Z,26.80
2022-09-09T06:20:03.926Z,27.40
2022-09-09T06:22:13.688Z,27.70
2022-09-09T06:24:20.375Z,28.10
2022-09-09T06:26:26.528Z,28.50
2022-09-09T06:28:31.044Z,28.80
2022-09-09T06:30:35.460Z,29.10
2022-09-09T06:32:40.381Z,29.30
2022-09-09T06:34:46.650Z,29.60
2022-09-09T06:36:53.156Z,29.80
2022-09-09T06:38:58.159Z,29.90
2022-09-09T06:41:02.934Z,29.70
2022-09-09T06:43:07.940Z,29.40
2022-09-09T06:45:17.333Z,29.60
2022-09-09T06:47:28.404Z,29.40
2022-09-09T06:49:34.260Z,29.40
2022-09-09T06:51:44.023Z,29.50
2022-09-09T06:53:54.608Z,29.60
2022-09-09T06:56:00.044Z,29.80
2022-09-09T06:58:04.574Z,30.10
2022-09-09T07:00:10.601Z,30.50
2022-09-09T07:02:15.759Z,30.70
2022-09-09T07:04:20.429Z,30.80
2022-09-09T07:06:26.325Z,30.90
2022-09-09T07:08:31.530Z,31.00
2022-09-09T07:10:38.231Z,30.90
2022-09-09T07:12:42.521Z,30.80
2022-09-09T07:14:48.886Z,30.40
2022-09-09T07:16:56.440Z,30.20
2022-09-09T07:19:03.648Z,30.20
2022-09-09T07:21:09.608Z,30.50
2022-09-09T07:23:13.828Z,30.40
2022-09-09T07:25:19.049Z,30.50
2022-09-09T07:27:29.718Z,30.70
2022-09-09T07:29:35.602Z,30.80
2022-09-09T07:31:47.643Z,31.00
2022-09-09T07:33:57.694Z,30.60
2022-09-09T07:36:08.193Z,30.10
2022-09-09T07:38:13.404Z,29.60
2022-09-09T07:40:19.120Z,29.50
2022-09-09T07:42:26.278Z,29.30
2022-09-09T07:44:31.614Z,28.90
2022-09-09T07:46:43.568Z,28.90
2022-09-09T07:48:52.334Z,28.80
2022-09-09T07:51:08.270Z,29.30
2022-09-09T07:53:12.738Z,29.30
2022-09-09T07:55:20.749Z,29.30
2022-09-09T07:57:31.924Z,29.40
2022-09-09T07:59:39.260Z,29.70
2022-09-09T08:01:45.406Z,29.50
2022-09-09T08:03:57.220Z,29.50
2022-09-09T08:06:04.441Z,29.50
2022-09-09T08:08:10.159Z,29.70
2022-09-09T08:10:21.663Z,29.90
2022-09-09T08:12:28.824Z,29.80
2022-09-09T08:14:34.294Z,30.00
2022-09-09T08:16:42.281Z,30.20
2022-09-09T08:18:46.877Z,30.50
2022-09-09T08:20:51.159Z,30.50
2022-09-09T08:22:57.347Z,30.50
2022-09-09T08:25:07.927Z,30.50
2022-09-09T08:27:15.095Z,30.20
2022-09-09T08:29:21.983Z,30.20
2022-09-09T08:31:29.149Z,30.10
2022-09-09T08:33:34.213Z,30.20
2022-09-09T08:35:38.803Z,30.30
2022-09-09T08:37:43.733Z,30.50
2022-09-09T08:39:54.100Z,30.60
2022-09-09T08:42:23.500Z,30.90
2022-09-09T08:44:48.637Z,31.10
2022-09-09T08:47:00.682Z,30.90
2022-09-09T08:49:14.059Z,30.70
2022-09-09T08:51:18.929Z,30.50
2022-09-09T08:53:26.881Z,30.40
2022-09-09T08:55:42.485Z,30.10
2022-09-09T08:57:47.371Z,29.90
2022-09-09T08:59:54.730Z,29.80
2022-09-09T09:02:09.927Z,29.60
2022-09-09T09:04:40.592Z,29.90
2022-09-09T09:06:57.194Z,30.00
2022-09-09T09:09:05.912Z,30.30
2022-09-09T09:11:10.602Z,30.00
2022-09-09T09:13:18.272Z,29.90
2022-09-09T09:15:30.695Z,29.80
2022-09-09T09:17:38.722Z,29.50
2022-09-09T09:19:47.776Z,29.30
2022-09-09T09:21:58.504Z,29.40
2022-09-09T09:24:07.727Z,29.60
2022-09-09T09:26:13.419Z,29.90
2022-09-09T09:28:23.146Z,30.20
2022-09-09T09:30:39.609Z,30.20
2022-09-09T09:32:54.879Z,30.10
2022-09-09T09:35:02.204Z,29.90
2022-09-09T09:37:20.839Z,29.90
2022-09-09T09:41:54.349Z,30.40
2022-09-09T09:43:59.484Z,30.60
2022-09-09T09:46:17.710Z,30.70
2022-09-09T09:48:23.812Z,30.60
2022-09-09T09:50:28.567Z,30.50
2022-09-09T09:52:37.854Z,30.30
2022-09-09T09:54:45.263Z,30.70
2022-09-09T09:56:50.024Z,31.00
2022-09-09T09:58:56.282Z,31.00
2022-09-09T10:01:25.409Z,30.90
2022-09-09T10:03:41.465Z,30.80
2022-09-09T10:05:49.630Z,31.00
2022-09-09T10:08:12.025Z,30.90
2022-09-09T10:10:24.453Z,30.80
2022-09-09T10:12:40.301Z,30.50
2022-09-09T10:14:53.586Z,30.40
2022-09-09T10:17:12.585Z,30.40
2022-09-09T10:19:18.847Z,30.20
2022-09-09T10:21:44.204Z,30.40
2022-09-09T10:24:02.814Z,30.70
2022-09-09T10:26:20.660Z,30.70
2022-09-09T10:28:53.283Z,30.70
2022-09-09T10:31:13.878Z,30.80
2022-09-09T10:33:30.075Z,31.00
2022-09-09T10:35:42.789Z,31.00
2022-09-09T10:38:15.059Z,31.00
2022-09-09T10:40:33.846Z,31.10
2022-09-09T10:42:39.285Z,31.10
2022-09-09T10:45:05.926Z,31.20
2022-09-09T10:47:47.570Z,31.10
2022-09-09T10:50:21.007Z,31.40
2022-09-09T10:52:33.721Z,31.30
2022-09-09T10:54:53.032Z,31.30
2022-09-09T10:57:02.417Z,31.30
2022-09-09T10:59:13.098Z,31.40
2022-09-09T11:01:23.223Z,31.50
2022-09-09T11:03:31.001Z,31.50
2022-09-09T11:05:43.762Z,31.40
2022-09-09T11:07:53.952Z,31.40
2022-09-09T11:10:04.119Z,31.50
2022-09-09T11:12:15.683Z,31.50
2022-09-09T11:14:28.713Z,31.40
2022-09-09T11:16:42.963Z,31.30
2022-09-09T11:18:50.481Z,31.40
2022-09-09T11:21:03.476Z,31.50
2022-09-09T11:23:14.806Z,31.50
2022-09-09T11:25:23.324Z,31.50
2022-09-09T11:27:32.812Z,31.50
2022-09-09T11:30:05.751Z,31.50
2022-09-09T11:32:36.162Z,31.60
2022-09-09T11:34:53.025Z,31.50
2022-09-09T11:37:24.719Z,31.50
2022-09-09T11:39:54.140Z,31.40
2022-09-09T11:42:08.071Z,31.50
2022-09-09T11:44:15.033Z,31.50
2022-09-09T11:46:30.926Z,31.60
2022-09-09T11:48:39.450Z,31.70
2022-09-09T11:50:43.879Z,31.80
2022-09-09T11:52:50.951Z,32.00
2022-09-09T11:54:58.739Z,32.10
2022-09-09T11:57:05.827Z,32.10
2022-09-09T11:59:23.267Z,32.10
2022-09-09T12:01:35.828Z,31.90
2022-09-09T12:03:45.770Z,31.90
2022-09-09T12:05:52.482Z,32.00
2022-09-09T12:08:00.778Z,32.10
2022-09-09T12:10:09.187Z,32.10
2022-09-09T12:12:31.587Z,32.20
2022-09-09T12:14:41.120Z,32.10
2022-09-09T12:16:46.797Z,32.20
2022-09-09T12:18:51.780Z,32.20
2022-09-09T12:21:05.782Z,32.20
2022-09-09T12:23:28.373Z,32.30
2022-09-09T12:25:42.326Z,32.40
2022-09-09T12:27:58.639Z,31.80
2022-09-09T12:30:07.594Z,31.60
2022-09-09T12:32:25.200Z,31.70
2022-09-09T12:34:41.961Z,31.70
2022-09-09T12:36:55.899Z,31.80
2022-09-09T12:39:19.031Z,31.70
2022-09-09T12:41:25.676Z,31.60
2022-09-09T12:43:31.120Z,31.50
2022-09-09T12:45:37.079Z,31.20
2022-09-09T12:47:46.975Z,31.00
2022-09-09T12:49:53.798Z,31.00
2022-09-09T12:51:59.722Z,31.10
2022-09-09T12:54:06.652Z,31.10
2022-09-09T12:56:22.916Z,31.10
2022-09-09T12:58:29.493Z,31.00
2022-09-09T13:00:34.901Z,31.00
2022-09-09T13:02:51.400Z,31.10
2022-09-09T13:05:16.432Z,31.20
2022-09-09T13:07:21.651Z,31.30
2022-09-09T13:09:28.436Z,31.30
2022-09-09T13:11:39.423Z,31.40
2022-09-09T13:13:52.311Z,31.50
2022-09-09T13:15:59.410Z,31.50
2022-09-09T13:18:11.806Z,31.60
2022-09-09T13:20:23.056Z,31.70
2022-09-09T13:22:54.060Z,31.60
2022-09-09T13:28:46.480Z,31.20
2022-09-09T13:31:03.993Z,31.10
2022-09-09T13:33:24.679Z,31.00
2022-09-09T13:35:31.023Z,30.90
2022-09-09T13:37:41.227Z,30.90
2022-09-09T13:39:54.860Z,30.90
2022-09-09T13:42:00.575Z,30.80
2022-09-09T13:44:07.600Z,30.60
2022-09-09T13:46:28.940Z,30.40
2022-09-09T13:48:33.427Z,30.20
2022-09-09T13:50:38.387Z,29.90
2022-09-09T13:52:42.649Z,29.70
2022-09-09T13:54:52.168Z,29.80
2022-09-09T13:56:56.415Z,29.60
2022-09-09T13:59:02.291Z,29.50
2022-09-09T14:01:06.751Z,29.60
2022-09-09T14:03:11.180Z,29.50
2022-09-09T14:05:16.151Z,29.10
2022-09-09T14:07:21.909Z,29.00
2022-09-09T14:09:26.317Z,29.00
2022-09-09T14:11:30.682Z,29.20
2022-09-09T14:13:35.360Z,29.10
2022-09-09T14:15:46.074Z,29.10
2022-09-09T14:17:53.403Z,29.00
2022-09-09T14:19:57.695Z,28.90
2022-09-09T14:22:03.847Z,28.80
2022-09-09T14:24:08.480Z,28.80
2022-09-09T14:26:12.709Z,28.70
2022-09-09T14:28:20.510Z,28.60
2022-09-09T14:30:32.688Z,28.50
2022-09-09T14:32:41.575Z,28.30
2022-09-09T14:34:46.025Z,28.20
2022-09-09T14:36:52.280Z,28.10
2022-09-09T14:38:59.578Z,28.10
2022-09-09T14:41:04.472Z,27.90
2022-09-09T14:43:09.011Z,27.80
2022-09-09T14:45:18.704Z,27.80
2022-09-09T14:47:27.325Z,27.70
2022-09-09T14:49:41.607Z,27.80
2022-09-09T14:51:49.234Z,27.90
2022-09-09T14:53:57.082Z,28.00
2022-09-09T14:56:09.635Z,28.00
2022-09-09T14:58:14.572Z,27.90
2022-09-09T15:00:18.957Z,27.90
2022-09-09T15:02:23.446Z,27.80
2022-09-09T15:04:32.486Z,27.80
2022-09-09T15:06:40.246Z,27.60
2022-09-09T15:08:53.173Z,27.40
2022-09-09T15:11:14.344Z,27.20
2022-09-09T15:13:19.283Z,27.20
2022-09-09T15:15:23.873Z,27.20
2022-09-09T15:17:30.782Z,27.10
2022-09-09T15:19:35.387Z,27.10
2022-09-09T15:21:41.510Z,27.00
2022-09-09T15:23:46.134Z,27.10
2022-09-09T15:25:54.697Z,26.90
2022-09-09T15:27:59.446Z,27.00
2022-09-09T15:30:04.305Z,26.90
2022-09-09T15:32:09.527Z,26.80
2022-09-09T15:34:14.895Z,26.90
2022-09-09T15:36:21.140Z,26.90
2022-09-09T15:38:28.285Z,27.10
2022-09-09T15:40:33.356Z,27.00
2022-09-09T15:42:47.733Z,27.00
2022-09-09T15:44:51.908Z,27.10
2022-09-09T15:46:56.211Z,27.00
2022-09-09T15:49:05.734Z,27.00
2022-09-09T15:51:24.833Z,27.00
2022-09-09T15:53:36.924Z,27.00
2022-09-09T15:55:41.293Z,26.90
2022-09-09T15:57:48.301Z,26.80
2022-09-09T15:59:52.672Z,26.70
2022-09-09T16:01:57.293Z,26.80
2022-09-09T16:04:02.343Z,26.90
2022-09-09T16:06:07.992Z,26.90
2022-09-09T16:08:12.608Z,26.70
2022-09-09T16:10:21.564Z,26.70
2022-09-09T16:12:26.441Z,26.50
2022-09-09T16:14:35.439Z,26.40
2022-09-09T16:16:40.454Z,26.40
2022-09-09T16:18:46.340Z,26.30
2022-09-09T16:21:29.111Z,26.30
2022-09-09T16:23:34.133Z,26.40
2022-09-09T16:25:40.397Z,26.40
2022-09-09T16:27:44.964Z,26.40
2022-09-09T16:29:50.378Z,26.30
2022-09-09T16:31:54.989Z,26.20
2022-09-09T16:33:59.518Z,26.20
2022-09-09T16:36:09.030Z,26.20
2022-09-09T16:38:13.885Z,26.20
2022-09-09T16:40:18.448Z,26.10
2022-09-09T16:42:24.241Z,26.10
2022-09-09T16:44:28.998Z,26.00
2022-09-09T16:46:35.274Z,26.10
2022-09-09T16:48:39.657Z,25.90
2022-09-09T16:50:44.016Z,25.80
2022-09-09T16:52:48.364Z,25.80
2022-09-09T16:54:52.784Z,25.90
2022-09-09T16:56:57.041Z,25.80
2022-09-09T16:59:04.815Z,25.80
2022-09-09T17:01:09.271Z,25.80
2022-09-09T17:03:16.171Z,25.90
2022-09-09T17:05:20.490Z,25.90
2022-09-09T17:07:24.921Z,25.80
2022-09-09T17:09:30.494Z,25.80
2022-09-09T17:11:35.558Z,25.70
2022-09-09T17:13:40.220Z,25.80
2022-09-09T17:15:46.337Z,25.80
2022-09-09T17:17:54.680Z,25.80
2022-09-09T17:19:59.037Z,25.80
2022-09-09T17:22:18.702Z,25.80
2022-09-09T17:24:22.891Z,25.80
2022-09-09T17:26:31.503Z,25.70
2022-09-09T17:28:36.648Z,25.60
2022-09-09T17:30:40.998Z,25.60
2022-09-09T17:32:47.631Z,25.40
2022-09-09T17:34:51.971Z,25.40
2022-09-09T17:36:56.408Z,25.30
2022-09-09T17:39:02.037Z,25.20
2022-09-09T17:41:08.293Z,25.20
2022-09-09T17:43:13.785Z,25.10
2022-09-09T17:45:18.170Z,25.20
2022-09-09T17:47:22.353Z,25.20
2022-09-09T17:49:28.021Z,25.30
2022-09-09T17:51:33.424Z,25.40
2022-09-09T17:53:40.075Z,25.30
2022-09-09T17:55:44.780Z,25.20
2022-09-09T17:57:48.897Z,25.20
2022-09-09T17:59:53.005Z,25.20
2022-09-09T18:01:59.975Z,25.30
2022-09-09T18:04:06.707Z,25.20
2022-09-09T18:06:16.213Z,25.20
2022-09-09T18:08:20.353Z,25.20
2022-09-09T18:10:24.551Z,25.20
2022-09-09T18:12:29.064Z,25.30
2022-09-09T18:14:34.039Z,25.40
2022-09-09T18:16:38.773Z,25.50
2022-09-09T18:18:42.979Z,25.60
2022-09-09T18:20:47.432Z,25.60
2022-09-09T18:22:53.580Z,25.70
2022-09-09T18:24:58.030Z,25.80
2022-09-09T18:27:02.254Z,25.80
2022-09-09T18:29:08.488Z,25.80
2022-09-09T18:31:14.325Z,25.80
2022-09-09T18:33:18.612Z,25.90
2022-09-09T18:35:22.910Z,25.80
2022-09-09T18:37:27.314Z,25.80
2022-09-09T18:39:33.237Z,25.70
2022-09-09T18:41:39.444Z,25.60
2022-09-09T18:43:44.911Z,25.70
2022-09-09T18:45:49.148Z,25.60
2022-09-09T18:47:53.410Z,25.60
2022-09-09T18:49:57.619Z,25.50
2022-09-09T18:52:02.920Z,25.50
2022-09-09T18:54:09.711Z,25.40
2022-09-09T18:56:15.540Z,25.40
2022-09-09T18:58:19.945Z,25.40
2022-09-09T19:00:24.232Z,25.60
2022-09-09T19:02:28.897Z,25.50
2022-09-09T19:04:33.964Z,25.50
2022-09-09T19:06:41.410Z,25.50
2022-09-09T19:08:48.535Z,25.50
2022-09-09T19:10:55.751Z,25.60
2022-09-09T19:13:01.639Z,25.60
2022-09-09T19:15:06.758Z,25.60
2022-09-09T19:17:10.950Z,25.60
2022-09-09T19:19:19.764Z,25.60
2022-09-09T19:21:25.991Z,25.60
2022-09-09T19:23:31.378Z,25.50
2022-09-09T19:25:38.830Z,25.40
2022-09-09T19:27:43.288Z,25.40
2022-09-09T19:29:49.147Z,25.30
2022-09-09T19:32:36.378Z,25.30
2022-09-09T19:34:20.462Z,25.30
2022-09-09T19:36:27.749Z,25.20
2022-09-09T19:38:33.091Z,25.30
2022-09-09T19:40:37.464Z,25.10
2022-09-09T19:42:42.379Z,25.10
2022-09-09T19:44:46.643Z,25.20
2022-09-09T19:46:52.975Z,25.10
2022-09-09T19:48:59.614Z,25.00
2022-09-09T19:51:05.277Z,25.00
2022-09-09T19:53:10.312Z,24.90
2022-09-09T19:55:14.527Z,24.90
2022-09-09T19:57:19.798Z,24.90
2022-09-09T19:59:24.020Z,25.00
2022-09-09T20:01:29.714Z,25.00
2022-09-09T20:03:36.409Z,24.90
2022-09-09T20:05:40.643Z,24.90
2022-09-09T20:07:44.862Z,24.90
2022-09-09T20:09:49.457Z,25.00
2022-09-09T20:11:53.611Z,24.90
2022-09-09T20:13:57.894Z,24.90
2022-09-09T20:16:04.003Z,24.90
2022-09-09T20:18:08.417Z,24.90
2022-09-09T20:20:14.579Z,25.00
2022-09-09T20:22:19.337Z,25.00
2022-09-09T20:24:24.023Z,25.00
2022-09-09T20:26:28.895Z,25.00
2022-09-09T20:28:33.064Z,24.90
2022-09-09T20:30:38.402Z,24.90
2022-09-09T20:32:43.039Z,24.70
2022-09-09T20:34:48.450Z,24.60
2022-09-09T20:36:54.744Z,24.60
2022-09-09T20:39:00.574Z,24.60
2022-09-09T20:41:05.390Z,24.60
2022-09-09T20:43:13.762Z,24.60
2022-09-09T20:45:17.995Z,24.60
2022-09-09T20:47:22.613Z,24.60
2022-09-09T20:49:27.988Z,24.60
2022-09-09T20:51:34.394Z,24.60
2022-09-09T20:53:40.633Z,24.50
2022-09-09T20:55:44.786Z,24.40
2022-09-09T20:57:50.015Z,24.30
2022-09-09T20:59:54.206Z,24.10
2022-09-09T21:02:01.036Z,24.00
2022-09-09T21:04:05.530Z,24.00
2022-09-09T21:06:10.649Z,23.90
2022-09-09T21:08:14.863Z,23.80
2022-09-09T21:10:21.475Z,23.80
2022-09-09T21:12:25.958Z,23.80
2022-09-09T21:14:32.601Z,23.70
2022-09-09T21:16:36.851Z,23.70
2022-09-09T21:18:41.639Z,23.60
2022-09-09T21:20:46.014Z,23.60
2022-09-09T21:22:50.305Z,23.60
2022-09-09T21:24:54.618Z,23.60
2022-09-09T21:27:00.832Z,23.60
2022-09-09T21:29:05.016Z,23.70
2022-09-09T21:31:13.901Z,23.60
2022-09-09T21:33:19.366Z,23.50
2022-09-09T21:35:23.498Z,23.40
2022-09-09T21:37:28.384Z,23.30
2022-09-09T21:39:32.791Z,23.30
2022-09-09T21:41:37.636Z,23.20
2022-09-09T21:43:44.514Z,23.20
2022-09-09T21:45:50.658Z,23.10
2022-09-09T21:47:55.015Z,23.20
2022-09-09T21:50:00.609Z,23.10
2022-09-09T21:52:04.826Z,23.20
2022-09-09T21:54:08.905Z,23.20
2022-09-09T21:56:15.346Z,23.20
2022-09-09T21:58:19.706Z,23.20
2022-09-09T22:00:25.538Z,23.20
2022-09-09T22:02:29.888Z,23.20
2022-09-09T22:04:36.145Z,23.30
2022-09-09T22:06:40.436Z,23.40
2022-09-09T22:08:45.226Z,23.40
2022-09-09T22:10:49.670Z,23.40
2022-09-09T22:12:54.263Z,23.40
2022-09-09T22:14:58.647Z,23.60
2022-09-09T22:17:05.441Z,23.50
2022-09-09T22:19:10.781Z,23.30
2022-09-09T22:21:18.693Z,23.20
2022-09-09T22:23:23.462Z,23.20
2022-09-09T22:25:27.629Z,23.30
2022-09-09T22:27:32.244Z,23.30
2022-09-09T22:29:36.720Z,23.20
2022-09-09T22:31:40.982Z,23.20
2022-09-09T22:33:46.882Z,23.20
2022-09-09T22:35:52.344Z,23.10
2022-09-09T22:37:57.354Z,23.10
2022-09-09T22:40:01.909Z,23.10
2022-09-09T22:42:08.006Z,23.00
2022-09-09T22:44:12.526Z,22.90
2022-09-09T22:46:17.601Z,22.80
2022-09-09T22:48:22.276Z,22.70
2022-09-09T22:50:28.063Z,22.70
2022-09-09T22:52:33.292Z,22.60
2022-09-09T22:54:37.564Z,22.50
2022-09-09T22:56:42.781Z,22.60
2022-09-09T22:58:48.262Z,22.60
2022-09-09T23:00:52.638Z,22.70
2022-09-09T23:02:56.903Z,22.60
2022-09-09T23:05:04.364Z,22.60
2022-09-09T23:07:10.091Z,22.70
2022-09-09T23:09:14.819Z,22.60
2022-09-09T23:11:19.429Z,22.60
2022-09-09T23:13:25.303Z,22.60
2022-09-09T23:15:31.478Z,22.50
2022-09-09T23:17:36.201Z,22.50
2022-09-09T23:19:40.441Z,22.40
2022-09-09T23:21:46.352Z,22.40
2022-09-09T23:23:54.709Z,22.40
2022-09-09T23:26:02.692Z,22.40
2022-09-09T23:28:07.003Z,22.40
2022-09-09T23:30:12.030Z,22.30
2022-09-09T23:32:16.676Z,22.30
2022-09-09T23:34:20.914Z,22.20
2022-09-09T23:36:26.663Z,22.20
2022-09-09T23:38:31.100Z,22.10
2022-09-09T23:40:40.558Z,22.10
2022-09-09T23:42:47.248Z,22.20
2022-09-09T23:44:52.245Z,22.20
2022-09-09T23:46:56.629Z,22.20
2022-09-09T23:49:02.715Z,22.30
2022-09-09T23:51:07.759Z,22.30
2022-09-09T23:53:12.286Z,22.30
2022-09-09T23:55:16.628Z,22.20
2022-09-09T23:57:22.797Z,22.20
2022-09-09T23:59:27.599Z,22.00
